createdAt,value
2023-04-18T00:01:30.788Z,73.88
2023-04-18T00:03:58.196Z,65.57
2023-04-18T00:06:25.998Z,71.78
2023-04-18T00:08:53.314Z,69.00
2023-04-18T00:11:20.713Z,68.05
2023-04-18T00:13:48.134Z,70.90
2023-04-18T00:16:15.716Z,71.78
2023-04-18T00:18:43.074Z,75.00
2023-04-18T00:21:10.303Z,69.90
2023-04-18T00:23:39.809Z,73.43
2023-04-18T00:26:07.146Z,68.05
2023-04-18T00:28:34.620Z,72.50
2023-04-18T00:31:02.142Z,71.70
2023-04-18T00:33:32.370Z,70.78
2023-04-18T00:35:59.686Z,70.65
2023-04-18T00:38:26.924Z,75.38
2023-04-18T00:40:54.241Z,71.90
2023-04-18T00:43:23.816Z,82.40
2023-04-18T00:45:51.178Z,81.07
2023-04-18T00:48:18.504Z,81.43
2023-04-18T00:50:46.036Z,80.78
2023-04-18T00:53:13.548Z,82.00
2023-04-18T00:55:41.777Z,78.70
2023-04-18T00:58:09.296Z,77.97
2023-04-18T01:00:36.940Z,84.00
2023-04-18T01:03:04.724Z,88.13
2023-04-18T01:05:32.003Z,81.35
2023-04-18T01:08:01.244Z,82.75
2023-04-18T01:10:30.053Z,83.13
2023-04-18T01:13:17.322Z,85.18
2023-04-18T01:15:46.879Z,87.00
2023-04-18T01:18:18.506Z,80.88
2023-04-18T01:20:50.963Z,79.72
2023-04-18T01:23:20.703Z,85.07
2023-04-18T01:25:51.808Z,80.88
2023-04-18T01:28:21.239Z,78.20
2023-04-18T01:30:49.188Z,83.82
2023-04-18T01:33:16.485Z,86.32
2023-04-18T01:35:46.403Z,83.25
2023-04-18T01:38:13.637Z,82.88
2023-04-18T01:40:40.915Z,80.47
2023-04-18T01:43:08.369Z,79.13
2023-04-18T01:45:38.220Z,80.65
2023-04-18T01:48:05.739Z,83.55
2023-04-18T01:50:33.588Z,79.93
2023-04-18T01:53:00.898Z,84.63
2023-04-18T01:55:28.131Z,86.55
2023-04-18T01:57:55.462Z,84.82
2023-04-18T02:00:22.863Z,82.75
2023-04-18T02:02:50.522Z,84.05
2023-04-18T02:05:18.139Z,84.50
2023-04-18T02:07:45.678Z,80.10
2023-04-18T02:10:13.010Z,79.13
2023-04-18T02:12:40.238Z,85.75
2023-04-18T02:15:07.989Z,82.38
2023-04-18T02:17:36.852Z,85.18
2023-04-18T02:20:04.569Z,84.38
2023-04-18T02:22:31.902Z,82.30
2023-04-18T02:25:01.052Z,79.67
2023-04-18T02:27:28.364Z,82.63
2023-04-18T02:29:57.670Z,80.50
2023-04-18T02:32:25.107Z,82.97
2023-04-18T02:34:52.443Z,79.93
2023-04-18T02:37:19.725Z,83.25
2023-04-18T02:39:47.030Z,77.97
2023-04-18T02:42:14.789Z,78.20
2023-04-18T02:44:42.081Z,80.53
2023-04-18T02:47:09.983Z,76.68
2023-04-18T02:49:40.501Z,80.88
2023-04-18T02:52:07.773Z,85.15
2023-04-18T02:54:35.099Z,79.43
2023-04-18T02:57:07.616Z,78.13
2023-04-18T02:59:55.099Z,78.30
2023-04-18T03:02:31.581Z,78.63
2023-04-18T03:05:06.721Z,80.97
2023-04-18T03:07:34.145Z,82.57
2023-04-18T03:10:01.427Z,80.53
2023-04-18T03:12:33.771Z,81.25
2023-04-18T03:15:01.585Z,82.03
2023-04-18T03:17:29.099Z,79.40
2023-04-18T03:19:56.383Z,75.93
2023-04-18T03:22:24.526Z,84.90
2023-04-18T03:24:56.908Z,81.90
2023-04-18T03:27:38.475Z,77.22
2023-04-18T03:30:06.475Z,78.43
2023-04-18T03:32:35.287Z,81.88
2023-04-18T03:35:03.283Z,82.63
2023-04-18T03:37:30.939Z,82.30
2023-04-18T03:39:59.951Z,85.18
2023-04-18T03:42:29.723Z,83.22
2023-04-18T03:44:57.220Z,85.78
2023-04-18T03:47:25.635Z,85.70
2023-04-18T03:49:56.921Z,81.85
2023-04-18T03:52:27.001Z,78.28
2023-04-18T03:54:55.344Z,84.38
2023-04-18T03:57:26.207Z,79.30
2023-04-18T03:59:54.331Z,78.57
2023-04-18T04:02:22.003Z,88.90
2023-04-18T04:04:50.693Z,84.72
2023-04-18T04:07:18.238Z,80.65
2023-04-18T04:09:45.764Z,90.25
2023-04-18T04:12:13.134Z,88.28
2023-04-18T04:14:40.589Z,88.22
2023-04-18T04:17:08.005Z,85.65
2023-04-18T04:19:36.286Z,86.55
2023-04-18T04:22:13.480Z,83.43
2023-04-18T04:24:42.824Z,88.43
2023-04-18T04:27:12.608Z,88.05
2023-04-18T04:29:43.763Z,92.22
2023-04-18T04:32:13.019Z,88.38
2023-04-18T04:34:41.884Z,95.22
2023-04-18T04:37:14.038Z,92.20
2023-04-18T04:39:52.635Z,92.63
2023-04-18T04:42:44.068Z,99.35
2023-04-18T04:45:18.131Z,96.93
2023-04-18T04:47:46.360Z,96.22
2023-04-18T04:50:15.687Z,100.97
2023-04-18T04:52:43.125Z,99.82
2023-04-18T04:55:11.944Z,92.47
2023-04-18T04:57:40.976Z,95.15
2023-04-18T05:00:24.608Z,92.90
2023-04-18T05:02:53.782Z,102.03
2023-04-18T05:05:21.140Z,93.03
2023-04-18T05:07:48.578Z,94.65
2023-04-18T05:10:15.852Z,93.38
2023-04-18T05:12:43.192Z,98.18
2023-04-18T05:15:10.996Z,95.68
2023-04-18T05:17:38.211Z,99.85
2023-04-18T05:20:06.312Z,95.90
2023-04-18T05:22:33.682Z,91.72
2023-04-18T05:25:01.522Z,96.93
2023-04-18T05:27:28.917Z,90.93
2023-04-18T05:29:56.276Z,94.85
2023-04-18T05:32:23.665Z,93.50
2023-04-18T05:34:51.239Z,90.45
2023-04-18T05:37:18.675Z,91.53
2023-04-18T05:39:46.204Z,96.55
2023-04-18T05:42:13.435Z,92.90
2023-04-18T05:44:40.695Z,88.47
2023-04-18T05:47:07.954Z,99.60
2023-04-18T05:49:35.283Z,98.18
2023-04-18T05:52:02.697Z,92.45
2023-04-18T05:54:30.054Z,90.80
2023-04-18T05:56:57.378Z,90.35
2023-04-18T05:59:26.819Z,88.65
2023-04-18T06:01:54.087Z,89.50
2023-04-18T06:04:21.664Z,89.50
2023-04-18T06:06:49.109Z,84.53
2023-04-18T06:09:16.452Z,81.38
2023-04-18T06:11:43.685Z,92.30
2023-04-18T06:14:10.944Z,85.38
2023-04-18T06:16:38.696Z,86.82
2023-04-18T06:19:05.959Z,84.25
2023-04-18T06:21:33.270Z,86.28
2023-04-18T06:24:01.588Z,84.75
2023-04-18T06:26:30.158Z,93.43
2023-04-18T06:28:57.459Z,86.22
2023-04-18T06:31:24.700Z,85.05
2023-04-18T06:33:52.292Z,90.20
2023-04-18T06:36:19.937Z,84.68
2023-04-18T06:38:47.367Z,92.20
2023-04-18T06:41:15.766Z,85.57
2023-04-18T06:43:59.805Z,90.25
2023-04-18T06:46:30.391Z,91.55
2023-04-18T06:48:57.738Z,87.88
2023-04-18T06:51:24.989Z,88.68
2023-04-18T06:53:55.231Z,83.10
2023-04-18T06:56:22.716Z,95.50
2023-04-18T06:58:50.297Z,87.15
2023-04-18T07:01:17.745Z,96.78
2023-04-18T07:03:45.072Z,88.70
2023-04-18T07:06:12.597Z,91.68
2023-04-18T07:08:39.942Z,87.65
2023-04-18T07:11:07.487Z,96.25
2023-04-18T07:13:34.826Z,87.72
2023-04-18T07:16:02.119Z,85.03
2023-04-18T07:18:37.424Z,90.15
2023-04-18T07:21:09.395Z,89.90
2023-04-18T07:23:37.489Z,86.18
2023-04-18T07:26:05.835Z,89.07
2023-04-18T07:28:33.291Z,84.78
2023-04-18T07:31:01.490Z,90.03
2023-04-18T07:33:31.793Z,80.75
2023-04-18T07:36:00.923Z,99.97
2023-04-18T07:38:28.570Z,96.85
2023-04-18T07:41:00.143Z,92.15
2023-04-18T07:43:27.528Z,112.95
2023-04-18T07:45:54.834Z,98.78
2023-04-18T07:48:22.735Z,85.75
2023-04-18T07:50:50.147Z,82.68
2023-04-18T07:53:18.430Z,89.75
2023-04-18T07:55:46.597Z,88.25
2023-04-18T07:58:14.208Z,110.07
2023-04-18T08:00:42.697Z,101.85
2023-04-18T08:03:12.145Z,89.53
2023-04-18T08:05:40.623Z,95.85
2023-04-18T08:08:09.104Z,102.32
2023-04-18T08:10:36.698Z,113.78
2023-04-18T08:13:04.280Z,126.25
2023-04-18T08:15:32.536Z,81.18
2023-04-18T08:18:00.990Z,86.00
2023-04-18T08:20:28.302Z,89.45
2023-04-18T08:25:27.084Z,79.47
2023-04-18T08:27:54.459Z,78.18
2023-04-18T08:30:21.919Z,86.00
2023-04-18T08:32:49.855Z,80.35
2023-04-18T08:35:17.426Z,77.95
2023-04-18T08:37:44.650Z,73.40
2023-04-18T08:40:11.995Z,73.13
2023-04-18T08:42:42.266Z,66.00
2023-04-18T08:45:09.887Z,69.05
2023-04-18T08:47:37.321Z,81.45
2023-04-18T08:50:04.896Z,71.18
2023-04-18T08:52:32.585Z,71.88
2023-04-18T08:55:02.716Z,73.80
2023-04-18T09:00:00.601Z,73.82
2023-04-18T09:02:45.024Z,68.53
2023-04-18T09:05:19.915Z,71.40
2023-04-18T09:07:53.466Z,66.40
2023-04-18T09:10:32.940Z,73.55
2023-04-18T09:13:03.438Z,61.72
2023-04-18T09:15:31.324Z,69.93
2023-04-18T09:18:02.348Z,67.10
2023-04-18T09:20:38.462Z,71.53
2023-04-18T09:23:11.467Z,72.13
2023-04-18T09:25:44.445Z,68.15
2023-04-18T09:28:23.305Z,68.35
2023-04-18T09:30:52.506Z,61.50
2023-04-18T09:33:33.436Z,68.40
2023-04-18T09:36:21.703Z,65.63
2023-04-18T09:38:54.442Z,66.70
2023-04-18T09:41:23.678Z,68.90
2023-04-18T09:44:10.304Z,66.60
2023-04-18T09:46:39.700Z,64.82
2023-04-18T09:49:08.990Z,61.78
2023-04-18T09:51:38.532Z,64.95
2023-04-18T09:54:07.771Z,67.18
2023-04-18T09:56:38.045Z,68.72
2023-04-18T09:59:10.095Z,61.47
2023-04-18T10:01:38.323Z,62.20
2023-04-18T10:04:06.874Z,65.65
2023-04-18T10:06:35.170Z,65.80
2023-04-18T10:09:04.413Z,64.78
2023-04-18T10:11:32.153Z,59.70
2023-04-18T10:14:07.177Z,59.10
2023-04-18T10:16:36.327Z,60.20
2023-04-18T10:19:26.498Z,61.37
2023-04-18T10:21:53.805Z,60.50
2023-04-18T10:24:47.279Z,62.83
2023-04-18T10:27:15.273Z,67.82
2023-04-18T10:29:52.906Z,63.78
2023-04-18T10:32:22.727Z,59.25
2023-04-18T10:34:50.611Z,55.35
2023-04-18T10:37:19.027Z,53.72
2023-04-18T10:40:01.017Z,50.90
2023-04-18T10:42:58.384Z,52.42
2023-04-18T10:45:28.543Z,53.30
2023-04-18T10:51:26.904Z,52.15
2023-04-18T10:53:57.364Z,54.92
2023-04-18T10:56:26.107Z,49.80
2023-04-18T10:58:54.050Z,49.50
2023-04-18T11:01:33.143Z,48.80
2023-04-18T11:04:01.156Z,49.00
2023-04-18T11:06:29.065Z,47.33
2023-04-18T11:09:10.708Z,45.85
2023-04-18T11:11:38.019Z,50.40
2023-04-18T11:14:05.486Z,47.70
2023-04-18T11:16:33.613Z,49.55
2023-04-18T11:19:01.048Z,47.30
2023-04-18T11:21:30.594Z,50.67
2023-04-18T11:23:58.769Z,44.88
2023-04-18T11:26:27.172Z,46.63
2023-04-18T11:28:58.118Z,43.67
2023-04-18T11:31:25.648Z,50.03
2023-04-18T11:33:56.756Z,51.33
2023-04-18T11:36:24.201Z,38.67
2023-04-18T11:38:51.426Z,52.17
2023-04-18T11:41:18.706Z,43.30
2023-04-18T11:43:46.602Z,31.70
2023-04-18T11:46:13.942Z,37.65
2023-04-18T11:48:42.650Z,44.20
2023-04-18T11:51:37.008Z,40.97
2023-04-18T11:54:04.531Z,42.63
2023-04-18T11:56:32.294Z,31.67
2023-04-18T11:59:08.806Z,28.95
2023-04-18T12:01:36.216Z,27.67
2023-04-18T12:04:05.535Z,29.98
2023-04-18T12:06:48.690Z,29.90
2023-04-18T12:09:17.414Z,29.60
2023-04-18T12:11:46.317Z,28.73
2023-04-18T12:14:21.626Z,29.23
2023-04-18T12:16:49.678Z,29.25
2023-04-18T12:19:17.232Z,36.97
2023-04-18T12:22:02.107Z,34.33
2023-04-18T12:24:29.545Z,36.17
2023-04-18T12:26:58.095Z,38.35
2023-04-18T12:29:27.127Z,31.73
2023-04-18T12:31:54.668Z,29.65
2023-04-18T12:34:22.388Z,28.98
2023-04-18T12:36:49.713Z,25.30
2023-04-18T12:39:17.145Z,30.23
2023-04-18T12:41:44.608Z,26.70
2023-04-18T12:44:12.007Z,29.48
2023-04-18T12:46:41.893Z,25.80
2023-04-18T12:49:09.312Z,20.77
2023-04-18T12:51:36.735Z,24.08
2023-04-18T12:54:04.181Z,20.67
2023-04-18T12:56:31.490Z,24.33
2023-04-18T12:58:58.854Z,26.35
2023-04-18T13:01:26.263Z,31.52
2023-04-18T13:04:08.448Z,21.30
2023-04-18T13:06:39.534Z,24.40
2023-04-18T13:09:07.272Z,18.95
2023-04-18T13:11:34.579Z,20.75
2023-04-18T13:14:02.046Z,26.38
2023-04-18T13:16:29.632Z,23.33
2023-04-18T13:18:56.967Z,25.30
2023-04-18T13:21:25.880Z,30.67
2023-04-18T13:23:53.303Z,20.08
2023-04-18T13:26:20.720Z,24.50
2023-04-18T13:28:48.121Z,28.40
2023-04-18T13:31:17.070Z,29.88
2023-04-18T13:33:44.690Z,23.50
2023-04-18T13:36:12.070Z,15.90
2023-04-18T13:38:39.853Z,20.95
2023-04-18T13:41:12.817Z,29.00
2023-04-18T13:43:40.978Z,30.13
2023-04-18T13:46:08.576Z,13.32
2023-04-18T13:48:36.153Z,13.35
2023-04-18T13:51:03.587Z,23.77
2023-04-18T13:53:31.253Z,13.85
2023-04-18T13:55:59.210Z,14.82
2023-04-18T13:58:26.444Z,16.05
2023-04-18T14:00:53.972Z,13.75
2023-04-18T14:03:21.352Z,16.27
2023-04-18T14:05:48.804Z,17.17
2023-04-18T14:08:16.430Z,17.60
2023-04-18T14:10:43.728Z,14.75
2023-04-18T14:13:11.049Z,14.57
2023-04-18T14:15:38.839Z,12.32
2023-04-18T14:18:06.535Z,11.18
2023-04-18T14:20:36.734Z,13.68
2023-04-18T14:25:31.087Z,13.00
2023-04-18T14:28:12.163Z,14.10
2023-04-18T14:30:39.975Z,15.80
2023-04-18T14:33:08.745Z,12.98
2023-04-18T14:35:36.206Z,15.95
2023-04-18T14:38:03.435Z,31.00
2023-04-18T14:40:32.556Z,22.95
2023-04-18T14:43:00.513Z,21.38
2023-04-18T14:45:28.112Z,28.27
2023-04-18T14:47:55.860Z,13.75
2023-04-18T14:50:23.309Z,14.05
2023-04-18T14:52:51.016Z,10.55
2023-04-18T14:55:21.776Z,12.30
2023-04-18T14:57:49.091Z,8.80
2023-04-18T15:00:16.665Z,10.73
2023-04-18T15:02:44.323Z,15.45
2023-04-18T15:05:12.523Z,10.05
2023-04-18T15:07:40.791Z,15.07
2023-04-18T15:10:08.573Z,12.00
2023-04-18T15:12:36.108Z,11.00
2023-04-18T15:15:03.456Z,11.57
2023-04-18T15:17:30.892Z,13.32
2023-04-18T15:20:01.060Z,12.77
2023-04-18T15:24:55.468Z,10.20
2023-04-18T15:27:22.839Z,11.13
2023-04-18T15:29:50.146Z,13.90
2023-04-18T15:32:17.985Z,12.85
2023-04-18T15:34:45.380Z,11.80
2023-04-18T15:37:12.669Z,13.32
2023-04-18T15:39:40.126Z,10.88
2023-04-18T15:42:07.626Z,13.82
2023-04-18T15:44:34.849Z,11.68
2023-04-18T15:47:02.362Z,13.27
2023-04-18T15:49:29.625Z,10.48
2023-04-18T15:51:56.933Z,12.48
2023-04-18T15:54:24.258Z,18.90
2023-04-18T15:56:51.637Z,14.63
2023-04-18T15:59:18.958Z,9.90
2023-04-18T16:01:46.422Z,11.40
2023-04-18T16:04:14.207Z,11.57
2023-04-18T16:06:41.807Z,10.40
2023-04-18T16:09:09.961Z,13.43
2023-04-18T16:11:37.247Z,9.77
2023-04-18T16:14:04.474Z,11.82
2023-04-18T16:16:32.122Z,9.30
2023-04-18T16:18:59.840Z,10.88
2023-04-18T16:21:28.306Z,13.70
2023-04-18T16:23:56.984Z,12.30
2023-04-18T16:26:24.991Z,10.55
2023-04-18T16:28:52.393Z,11.98
2023-04-18T16:31:19.855Z,13.50
2023-04-18T16:33:47.292Z,9.75
2023-04-18T16:36:15.187Z,11.85
2023-04-18T16:38:42.572Z,10.30
2023-04-18T16:41:09.891Z,9.70
2023-04-18T16:43:38.058Z,9.60
2023-04-18T16:46:05.692Z,10.68
2023-04-18T16:48:33.079Z,8.48
2023-04-18T16:51:00.724Z,9.00
2023-04-18T16:53:28.497Z,8.82
2023-04-18T16:55:55.970Z,10.63
2023-04-18T16:58:23.701Z,10.38
2023-04-18T17:00:52.871Z,9.82
2023-04-18T17:03:20.598Z,9.00
2023-04-18T17:05:47.957Z,8.45
2023-04-18T17:08:15.191Z,9.15
2023-04-18T17:10:42.556Z,11.07
2023-04-18T17:13:09.874Z,10.70
2023-04-18T17:15:38.199Z,10.52
2023-04-18T17:18:05.794Z,10.60
2023-04-18T17:20:33.171Z,9.05
2023-04-18T17:23:00.708Z,12.05
2023-04-18T17:25:27.922Z,9.27
2023-04-18T17:27:55.196Z,11.35
2023-04-18T17:30:22.540Z,9.82
2023-04-18T17:32:50.540Z,9.23
2023-04-18T17:35:17.926Z,9.25
2023-04-18T17:37:46.625Z,11.32
2023-04-18T17:40:14.256Z,10.77
2023-04-18T17:42:41.677Z,12.02
2023-04-18T17:45:10.012Z,11.32
2023-04-18T17:47:37.547Z,10.63
2023-04-18T17:50:05.392Z,10.95
2023-04-18T17:52:33.092Z,13.63
2023-04-18T17:55:01.659Z,9.48
2023-04-18T17:57:30.563Z,10.63
2023-04-18T17:59:58.086Z,11.43
2023-04-18T18:02:25.566Z,9.70
2023-04-18T18:04:53.148Z,10.52
2023-04-18T18:07:20.946Z,11.52
2023-04-18T18:09:48.407Z,13.57
2023-04-18T18:12:15.823Z,13.82
2023-04-18T18:14:43.075Z,13.85
2023-04-18T18:17:11.195Z,12.43
2023-04-18T18:19:38.927Z,14.93
2023-04-18T18:22:07.090Z,15.77
2023-04-18T18:24:34.583Z,12.90
2023-04-18T18:27:01.829Z,14.38
2023-04-18T18:29:30.372Z,13.57
2023-04-18T18:31:57.569Z,12.93
2023-04-18T18:34:25.116Z,14.55
2023-04-18T18:36:52.428Z,13.15
2023-04-18T18:39:20.051Z,13.57
2023-04-18T18:41:47.312Z,14.60
2023-04-18T18:44:14.722Z,12.70
2023-04-18T18:46:43.237Z,15.35
2023-04-18T18:49:10.732Z,15.07
2023-04-18T18:51:38.087Z,13.85
2023-04-18T18:54:05.500Z,15.30
2023-04-18T18:56:32.948Z,17.85
2023-04-18T18:59:00.284Z,13.48
2023-04-18T19:01:30.123Z,14.13
2023-04-18T19:03:57.561Z,13.70
2023-04-18T19:06:24.938Z,13.57
2023-04-18T19:08:52.378Z,14.35
2023-04-18T19:11:19.791Z,13.93
2023-04-18T19:13:47.129Z,14.27
2023-04-18T19:16:14.719Z,14.50
2023-04-18T19:18:46.864Z,15.70
2023-04-18T19:21:14.122Z,15.80
2023-04-18T19:23:42.138Z,14.93
2023-04-18T19:26:12.363Z,13.43
2023-04-18T19:31:06.960Z,16.58
2023-04-18T19:33:34.282Z,17.48
2023-04-18T19:36:02.186Z,15.48
2023-04-18T19:38:29.405Z,17.20
2023-04-18T19:40:57.288Z,17.05
2023-04-18T19:43:24.586Z,16.15
2023-04-18T19:45:53.872Z,16.77
2023-04-18T19:48:22.439Z,18.75
2023-04-18T19:50:50.104Z,19.00
2023-04-18T19:53:18.988Z,17.92
2023-04-18T19:55:46.320Z,20.70
2023-04-18T19:58:34.609Z,22.85
2023-04-18T20:01:02.037Z,20.88
2023-04-18T20:03:29.517Z,18.08
2023-04-18T20:05:56.991Z,21.10
2023-04-18T20:08:24.230Z,18.65
2023-04-18T20:10:51.572Z,22.05
2023-04-18T20:13:18.893Z,19.60
2023-04-18T20:15:46.110Z,19.92
2023-04-18T20:18:13.507Z,19.52
2023-04-18T20:20:41.336Z,21.05
2023-04-18T20:23:09.189Z,20.77
2023-04-18T20:25:36.612Z,21.20
2023-04-18T20:28:04.038Z,22.05
2023-04-18T20:30:31.469Z,22.17
2023-04-18T20:32:58.871Z,20.02
2023-04-18T20:35:28.077Z,23.20
2023-04-18T20:37:55.711Z,22.23
2023-04-18T20:40:23.092Z,21.63
2023-04-18T20:42:50.619Z,20.75
2023-04-18T20:45:17.998Z,21.17
2023-04-18T20:47:45.819Z,21.33
2023-04-18T20:50:14.035Z,22.20
2023-04-18T20:52:42.847Z,23.00
2023-04-18T20:55:10.979Z,21.48
2023-04-18T20:57:38.225Z,21.80
2023-04-18T21:00:07.299Z,20.70
2023-04-18T21:02:34.680Z,20.88
2023-04-18T21:05:02.460Z,20.88
2023-04-18T21:07:31.165Z,21.75
2023-04-18T21:09:58.503Z,20.83
2023-04-18T21:12:25.883Z,21.30
2023-04-18T21:14:53.104Z,20.85
2023-04-18T21:17:20.428Z,23.17
2023-04-18T21:19:48.730Z,20.55
2023-04-18T21:22:16.419Z,20.20
2023-04-18T21:24:43.897Z,20.05
2023-04-18T21:27:11.374Z,20.90
2023-04-18T21:29:38.845Z,21.80
2023-04-18T21:32:06.204Z,19.63
2023-04-18T21:34:33.465Z,20.45
2023-04-18T21:37:00.838Z,22.88
2023-04-18T21:39:28.109Z,22.15
2023-04-18T21:41:55.347Z,21.77
2023-04-18T21:44:22.790Z,20.98
2023-04-18T21:46:50.037Z,21.00
2023-04-18T21:49:17.435Z,21.38
2023-04-18T21:51:45.306Z,21.95
2023-04-18T21:54:12.707Z,23.30
2023-04-18T21:56:40.194Z,20.77
2023-04-18T21:59:07.408Z,20.20
2023-04-18T22:01:35.869Z,22.75
2023-04-18T22:04:03.353Z,19.42
2023-04-18T22:06:32.342Z,22.20
2023-04-18T22:09:00.969Z,23.88
2023-04-18T22:11:28.893Z,20.63
2023-04-18T22:13:58.146Z,20.25
2023-04-18T22:16:25.990Z,21.52
2023-04-18T22:18:53.996Z,22.52
2023-04-18T22:21:21.339Z,21.40
2023-04-18T22:23:48.555Z,23.60
2023-04-18T22:26:15.834Z,25.48
2023-04-18T22:28:43.259Z,20.85
2023-04-18T22:31:10.698Z,21.63
2023-04-18T22:33:38.061Z,23.08
2023-04-18T22:36:05.933Z,25.88
2023-04-18T22:38:33.228Z,22.75
2023-04-18T22:41:00.811Z,27.98
2023-04-18T22:43:28.454Z,21.73
2023-04-18T22:45:56.550Z,21.52
2023-04-18T22:48:23.932Z,20.13
2023-04-18T22:50:51.175Z,20.48
2023-04-18T22:53:18.458Z,23.60
2023-04-18T22:55:46.305Z,26.23
2023-04-18T22:58:14.214Z,20.75
2023-04-18T23:00:42.651Z,21.83
2023-04-18T23:03:10.327Z,21.25
2023-04-18T23:05:37.629Z,22.73
2023-04-18T23:08:06.916Z,22.52
2023-04-18T23:10:34.409Z,19.10
2023-04-18T23:13:01.613Z,21.15
2023-04-18T23:15:28.936Z,20.92
2023-04-18T23:17:56.281Z,21.75
2023-04-18T23:20:24.088Z,20.25
2023-04-18T23:22:51.786Z,20.38
2023-04-18T23:25:22.389Z,21.08
2023-04-18T23:27:49.660Z,23.50
2023-04-18T23:30:17.225Z,22.52
2023-04-18T23:32:44.528Z,25.25
2023-04-18T23:35:12.001Z,20.33
2023-04-18T23:37:39.423Z,21.90
2023-04-18T23:40:08.035Z,21.45
2023-04-18T23:42:35.722Z,21.70
2023-04-18T23:45:04.041Z,21.10
2023-04-18T23:47:31.609Z,20.60
2023-04-18T23:49:59.139Z,22.25
2023-04-18T23:52:26.584Z,21.95
2023-04-18T23:54:53.941Z,26.58
2023-04-18T23:57:21.364Z,22.40
2023-04-18T23:59:48.881Z,20.80
